Time;durP1;ratioP1;P1;durP2;ratioP2;P2;SDS_P1;SDS_P2;PMS_P1;PMS_P2;Temp;Humidity;BMP_temperature;BMP_pressure;BME280_temperature;BME280_humidity;BME280_pressure;Samples;Min_cycle;Max_cycle;Signal;HPM_P1;HPM_P2
2021/12/02 00:01:07;;;;;;;28.63;14.90;;;;;;;0.31;100.00;94008.81;4974766;28;20073;-78
2021/12/02 00:03:34;;;;;;;37.17;15.65;;;;;;;0.31;100.00;94016.81;4974983;28;20023;-78
2021/12/02 00:05:59;;;;;;;27.98;14.75;;;;;;;0.22;100.00;94011.38;4974736;28;20376;-78
2021/12/02 00:08:25;;;;;;;26.33;13.02;;;;;;;0.02;100.00;94007.06;4974689;28;20181;-78
2021/12/02 00:10:50;;;;;;;25.60;12.48;;;;;;;0.09;100.00;94012.16;4974707;28;20170;-78
2021/12/02 00:13:21;;;;;;;21.70;12.27;;;;;;;0.25;100.00;94010.53;4973608;28;20535;-78
2021/12/02 00:16:06;;;;;;;27.80;12.48;;;;;;;0.49;100.00;94029.56;4974928;28;20408;-78
2021/12/02 00:21:03;;;;;;;23.25;11.35;;;;;;;0.49;100.00;94016.97;4974867;28;20034;-78
2021/12/02 00:21:29;;;;;;;21.35;11.15;;;;;;;0.53;100.00;94024.13;4974486;28;20458;-78
2021/12/02 00:24:00;;;;;;;20.15;9.73;;;;;;;0.45;100.00;94021.69;4973826;28;20419;-78
2021/12/02 00:26:27;;;;;;;24.25;11.15;;;;;;;0.10;100.00;94015.59;4974521;28;20053;-79
2021/12/02 00:28:55;;;;;;;27.10;14.45;;;;;;;0.12;100.00;94022.00;4974440;28;20479;-78
2021/12/02 00:31:27;;;;;;;30.90;14.35;;;;;;;0.24;100.00;94017.06;4974600;28;20037;-79
2021/12/02 00:33:54;;;;;;;20.63;11.45;;;;;;;0.03;100.00;94024.56;4974255;28;20051;-79
2021/12/02 00:36:26;;;;;;;25.55;13.45;;;;;;;0.14;100.00;94024.97;5005881;28;20030;-79
2021/12/02 00:38:52;;;;;;;26.92;12.88;;;;;;;0.33;100.00;94019.81;4974574;28;20046;-79
2021/12/02 00:41:21;;;;;;;26.95;12.77;;;;;;;0.34;100.00;94029.28;4974606;28;20448;-79
2021/12/02 00:43:48;;;;;;;27.25;13.88;;;;;;;0.02;100.00;94028.41;4973307;28;20033;-80
2021/12/02 00:46:17;;;;;;;29.33;13.57;;;;;;;-0.05;100.00;94018.69;4974246;28;20468;-80
2021/12/02 00:48:44;;;;;;;21.33;13.00;;;;;;;0.15;100.00;94023.03;4974422;28;20089;-78
2021/12/02 00:51:11;;;;;;;26.52;12.45;;;;;;;-0.72;100.00;94017.63;5005942;28;20126;-78
2021/12/02 00:53:42;;;;;;;20.95;11.95;;;;;;;-0.88;100.00;94009.72;4974510;28;20023;-78
2021/12/02 00:56:11;;;;;;;26.08;13.82;;;;;;;-0.58;100.00;94016.47;4974702;28;20093;-78
2021/12/02 00:58:36;;;;;;;27.42;13.50;;;;;;;-0.51;100.00;94015.53;4974267;28;20026;-79
2021/12/02 01:01:03;;;;;;;25.25;13.18;;;;;;;-0.09;100.00;94012.00;4974849;28;20031;-79
2021/12/02 01:03:34;;;;;;;24.77;12.95;;;;;;;-0.08;100.00;94013.47;4974277;28;20038;-78
2021/12/02 01:06:00;;;;;;;30.33;14.20;;;;;;;-0.17;100.00;94025.53;4974638;28;20054;-78
2021/12/02 01:08:26;;;;;;;25.70;11.63;;;;;;;-0.14;100.00;94025.88;4974275;28;20035;-78
2021/12/02 01:10:52;;;;;;;24.23;11.98;;;;;;;-0.35;100.00;94033.34;4974214;28;20034;-78
2021/12/02 01:13:17;;;;;;;26.70;12.82;;;;;;;-0.29;100.00;94036.22;4974116;28;20031;-78
2021/12/02 01:15:43;;;;;;;25.08;12.07;;;;;;;0.01;100.00;94021.56;4974163;28;20038;-79
2021/12/02 01:18:08;;;;;;;21.25;10.02;;;;;;;0.01;100.00;94010.91;4974675;28;20093;-79
2021/12/02 01:20:35;;;;;;;15.82;9.73;;;;;;;-0.05;100.00;94009.97;4974170;28;20034;-79
2021/12/02 01:23:02;;;;;;;21.17;8.27;;;;;;;-0.03;100.00;94012.94;4974174;28;20110;-79
2021/12/02 01:25:32;;;;;;;14.35;7.70;;;;;;;-0.02;100.00;94014.44;4974634;28;20054;-80
2021/12/02 01:27:58;;;;;;;13.95;8.00;;;;;;;-0.04;100.00;94008.75;4974325;28;20054;-79
2021/12/02 01:30:26;;;;;;;19.58;11.13;;;;;;;-0.60;100.00;94024.16;4974002;28;20033;-78
2021/12/02 01:32:58;;;;;;;25.15;13.15;;;;;;;-0.49;100.00;94033.75;4974028;28;20105;-79
2021/12/02 01:35:26;;;;;;;28.08;12.98;;;;;;;-0.90;100.00;94012.81;4976360;28;20033;-79
2021/12/02 01:37:52;;;;;;;25.00;13.38;;;;;;;-0.57;100.00;94033.97;4977691;28;20476;-79
2021/12/02 01:40:17;;;;;;;25.30;13.88;;;;;;;-0.79;100.00;94017.09;4977891;28;20026;-79
2021/12/02 01:42:46;;;;;;;28.58;14.55;;;;;;;-0.33;100.00;94030.97;5009095;28;20100;-80
2021/12/02 01:45:15;;;;;;;29.85;14.93;;;;;;;-0.14;100.00;94031.19;5009366;28;20038;-80
2021/12/02 01:47:47;;;;;;;30.27;14.63;;;;;;;-0.08;100.00;94029.47;4977450;28;20100;-79
2021/12/02 01:50:16;;;;;;;24.70;13.77;;;;;;;-0.31;100.00;94025.97;4977482;28;20027;-80
2021/12/02 01:52:44;;;;;;;24.08;13.57;;;;;;;0.05;100.00;94024.88;4977589;28;20045;-80
2021/12/02 01:55:12;;;;;;;28.25;14.00;;;;;;;-0.18;100.00;94010.72;4977541;28;20027;-80
2021/12/02 01:57:47;;;;;;;27.05;14.25;;;;;;;-0.51;100.00;94005.59;4977584;28;20030;-80
2021/12/02 02:00:18;;;;;;;27.60;14.48;;;;;;;-0.54;100.00;94001.13;5008948;28;20026;-80
2021/12/02 02:02:43;;;;;;;28.33;14.45;;;;;;;-0.48;100.00;93982.66;4977532;28;20482;-80
2021/12/02 02:05:14;;;;;;;32.28;15.30;;;;;;;-0.47;100.00;93980.75;4977434;28;20034;-80
2021/12/02 02:07:58;;;;;;;26.38;13.25;;;;;;;-0.57;100.00;93983.31;4977270;28;20113;-79
2021/12/02 02:10:24;;;;;;;31.17;14.80;;;;;;;-0.59;100.00;93977.66;4977653;28;20030;-80
2021/12/02 02:12:50;;;;;;;31.25;15.57;;;;;;;-0.61;100.00;93965.94;4975970;28;20118;-79
2021/12/02 02:15:16;;;;;;;27.08;14.73;;;;;;;-0.42;100.00;93974.91;4976983;28;20098;-79
2021/12/02 02:21:02;;;;;;;24.67;13.02;;;;;;;-0.14;100.00;93975.19;4976388;28;20488;-79
2021/12/02 02:23:32;;;;;;;30.23;14.48;;;;;;;-0.40;100.00;93978.59;4976925;28;20018;-79
2021/12/02 02:25:59;;;;;;;26.50;14.63;;;;;;;-0.18;100.00;93978.72;4976805;28;20487;-80
2021/12/02 02:28:25;;;;;;;26.98;14.15;;;;;;;-0.12;100.00;93978.91;4976732;28;20030;-79
2021/12/02 02:30:51;;;;;;;26.48;14.52;;;;;;;-0.23;100.00;93970.47;5008399;28;20027;-81
2021/12/02 02:33:19;;;;;;;25.65;13.45;;;;;;;-0.44;100.00;93977.97;4975521;28;20404;-79
2021/12/02 02:35:46;;;;;;;23.55;13.18;;;;;;;-0.31;100.00;93975.31;4976682;28;20018;-80
2021/12/02 02:38:14;;;;;;;23.52;13.18;;;;;;;-0.17;100.00;93984.78;4976632;28;20397;-80
2021/12/02 02:40:42;;;;;;;28.55;13.48;;;;;;;-0.24;100.00;93979.69;4977162;28;20035;-81
2021/12/02 02:43:09;;;;;;;21.67;12.75;;;;;;;-0.20;100.00;94005.06;4976937;28;20117;-80
2021/12/02 02:45:36;;;;;;;25.10;13.40;;;;;;;-0.07;100.00;94004.28;4976381;28;20054;-80
2021/12/02 02:48:02;;;;;;;26.30;12.77;;;;;;;-0.15;100.00;93987.00;4976040;28;20041;-80
2021/12/02 02:50:30;;;;;;;25.80;13.07;;;;;;;-0.05;100.00;93999.28;4976540;28;20102;-80
2021/12/02 02:53:19;;;;;;;27.88;13.45;;;;;;;0.09;100.00;93993.47;4977294;28;20436;-81
2021/12/02 02:56:03;;;;;;;26.35;13.93;;;;;;;-0.28;100.00;93985.13;4977679;28;20038;-81
2021/12/02 03:06:41;;;;;;;27.80;13.48;;;;;;;-1.26;100.00;93965.09;4985322;28;20062;-80
2021/12/02 03:09:13;;;;;;;25.27;14.32;;;;;;;-0.78;100.00;93966.03;4980569;28;20070;-80
2021/12/02 03:11:51;;;;;;;;;;;;;;;-0.46;100.00;93975.00;4979261;28;20027;-80
2021/12/02 03:14:28;;;;;;;26.33;14.60;;;;;;;-0.72;100.00;93969.66;4977770;28;20348;-81
2021/12/02 03:16:53;;;;;;;29.85;14.93;;;;;;;-0.44;100.00;93982.56;4977033;28;20045;-80
2021/12/02 03:19:25;;;;;;;30.95;15.40;;;;;;;-0.74;100.00;93972.00;4975605;28;20109;-80
2021/12/02 03:21:51;;;;;;;25.67;13.65;;;;;;;-0.60;100.00;93973.50;4975839;28;20027;-80
2021/12/02 03:24:17;;;;;;;27.20;14.77;;;;;;;-0.58;100.00;93973.09;4975664;28;20100;-80
2021/12/02 03:26:42;;;;;;;27.98;15.05;;;;;;;-0.54;100.00;93974.47;4975887;28;20436;-81
2021/12/02 03:29:08;;;;;;;28.67;14.63;;;;;;;-1.14;100.00;93969.72;4975600;28;20109;-80
2021/12/02 03:31:34;;;;;;;29.48;15.25;;;;;;;-1.10;100.00;93973.03;4976002;28;20041;-80
2021/12/02 03:34:00;;;;;;;22.85;13.32;;;;;;;-1.00;100.00;93967.81;4975354;28;20046;-81
2021/12/02 03:36:26;;;;;;;28.67;13.93;;;;;;;-0.63;100.00;93962.94;4975679;28;20031;-80
2021/12/02 03:38:52;;;;;;;24.40;12.73;;;;;;;-0.49;100.00;93969.75;4975713;28;20460;-80
2021/12/02 03:41:17;;;;;;;26.45;12.63;;;;;;;-0.37;100.00;93955.66;4975377;28;20089;-79
2021/12/02 03:43:46;;;;;;;27.33;13.20;;;;;;;-0.44;100.00;93943.31;4975334;28;20101;-80
2021/12/02 03:46:14;;;;;;;31.77;14.07;;;;;;;-0.84;100.00;93953.69;4975460;28;20550;-79
2021/12/02 03:48:40;;;;;;;24.48;12.77;;;;;;;-0.74;100.00;93949.94;5006825;28;20031;-80
2021/12/02 03:51:07;;;;;;;28.52;13.45;;;;;;;-0.26;100.00;93960.69;4975304;28;20545;-80
2021/12/02 03:53:33;;;;;;;28.50;13.43;;;;;;;-0.24;100.00;93956.41;4975083;28;20031;-80
2021/12/02 03:55:59;;;;;;;25.33;11.88;;;;;;;-0.18;100.00;93948.59;4975201;28;20030;-80
2021/12/02 03:58:24;;;;;;;25.38;11.85;;;;;;;-0.08;100.00;93965.44;4974156;28;20023;-80
2021/12/02 04:00:50;;;;;;;23.08;11.95;;;;;;;-0.45;100.00;93939.16;4975083;28;20027;-80
2021/12/02 04:03:15;;;;;;;28.08;12.32;;;;;;;-0.45;100.00;93954.41;4974948;28;20465;-81
2021/12/02 04:05:41;;;;;;;24.92;13.32;;;;;;;-0.28;100.00;93947.78;4975542;28;20027;-79
2021/12/02 04:08:10;;;;;;;26.67;13.63;;;;;;;-0.23;100.00;93933.13;4974985;28;20101;-79
2021/12/02 04:10:36;;;;;;;24.85;13.55;;;;;;;-0.32;100.00;93941.06;4974907;28;20345;-79
2021/12/02 04:15:34;;;;;;;24.50;13.60;;;;;;;-0.36;100.00;93954.50;4975158;28;20456;-80
2021/12/02 04:17:59;;;;;;;27.35;13.25;;;;;;;-0.58;100.00;93941.09;4974783;28;20029;-79
2021/12/02 04:20:25;;;;;;;24.25;12.38;;;;;;;-0.35;100.00;93948.00;4974704;28;20460;-80
2021/12/02 04:22:52;;;;;;;28.33;12.98;;;;;;;-0.52;100.00;93950.78;4974768;28;20023;-80
2021/12/02 04:25:19;;;;;;;27.55;12.05;;;;;;;-0.49;100.00;93953.75;4974666;28;20030;-80
2021/12/02 04:27:46;;;;;;;28.85;12.52;;;;;;;-0.55;100.00;93959.63;4974637;28;20023;-81
2021/12/02 04:30:14;;;;;;;26.02;12.77;;;;;;;-0.24;100.00;93956.41;4975412;28;20377;-80
2021/12/02 04:32:40;;;;;;;30.35;12.60;;;;;;;-0.18;100.00;93940.59;4974366;28;20469;-80
2021/12/02 04:35:07;;;;;;;26.75;12.40;;;;;;;-0.19;100.00;93945.19;4974603;28;20019;-80
2021/12/02 04:37:33;;;;;;;29.48;12.38;;;;;;;-0.20;100.00;93935.69;4974826;28;20085;-80
2021/12/02 04:39:58;;;;;;;27.10;12.68;;;;;;;-0.30;100.00;93931.47;4974544;28;20026;-80
2021/12/02 04:42:24;;;;;;;24.92;12.73;;;;;;;-0.30;100.00;93944.81;4974720;28;20019;-81
2021/12/02 04:44:50;;;;;;;21.90;12.43;;;;;;;-0.15;100.00;93939.00;4973575;28;20034;-81
2021/12/02 04:47:16;;;;;;;27.65;12.70;;;;;;;0.11;100.00;93945.00;4975222;28;20027;-79
2021/12/02 04:49:42;;;;;;;24.45;12.25;;;;;;;0.07;100.00;93934.47;4974562;28;20117;-81
2021/12/02 04:52:08;;;;;;;29.35;12.77;;;;;;;-0.09;100.00;93937.28;4974383;28;20050;-80
2021/12/02 04:54:34;;;;;;;25.92;13.65;;;;;;;-0.14;100.00;93940.50;4974470;28;20530;-82
2021/12/02 04:56:59;;;;;;;26.10;13.77;;;;;;;-0.05;100.00;93927.97;4974399;28;20022;-80
2021/12/02 04:59:25;;;;;;;28.48;12.45;;;;;;;-0.03;100.00;93924.88;4974157;28;20027;-80
2021/12/02 05:01:51;;;;;;;25.85;12.85;;;;;;;-0.18;100.00;93920.03;4974154;28;20106;-80
2021/12/02 05:04:16;;;;;;;28.20;13.25;;;;;;;-0.09;100.00;93922.00;4974406;28;20038;-81
2021/12/02 05:06:42;;;;;;;24.70;13.20;;;;;;;-0.28;100.00;93910.44;4975328;28;20054;-80
2021/12/02 05:09:08;;;;;;;30.05;14.13;;;;;;;-0.01;100.00;93914.53;4974919;28;20026;-80
2021/12/02 05:11:34;;;;;;;24.15;12.45;;;;;;;-0.09;100.00;93905.28;4978318;28;20030;-81
2021/12/02 05:14:00;;;;;;;26.67;12.63;;;;;;;-0.02;100.00;93915.69;4977887;28;20022;-81
2021/12/02 05:16:25;;;;;;;22.55;10.90;;;;;;;-0.09;100.00;93910.59;4977907;28;20029;-81
2021/12/02 05:18:51;;;;;;;21.40;11.30;;;;;;;-0.04;100.00;93912.72;4977865;28;20139;-81
2021/12/02 05:21:16;;;;;;;28.95;11.93;;;;;;;-0.25;100.00;93914.91;4977794;28;20035;-81
2021/12/02 05:23:42;;;;;;;27.13;11.70;;;;;;;-0.06;100.00;93915.06;4977776;28;20098;-81
2021/12/02 05:26:08;;;;;;;26.60;11.52;;;;;;;0.11;100.00;93923.66;4977718;28;20515;-81
2021/12/02 05:28:33;;;;;;;30.95;11.18;;;;;;;0.21;100.00;93916.50;5009280;28;20027;-81
2021/12/02 05:30:59;;;;;;;20.77;10.80;;;;;;;0.31;100.00;93899.34;4978405;28;20035;-80
2021/12/02 05:33:25;;;;;;;22.05;11.13;;;;;;;-0.01;100.00;93911.88;4977379;28;20495;-80
2021/12/02 05:35:50;;;;;;;19.85;10.77;;;;;;;-0.05;100.00;93911.97;4977497;28;20030;-80
2021/12/02 05:38:16;;;;;;;26.80;12.65;;;;;;;0.14;100.00;93907.53;4977933;28;20369;-77
2021/12/02 05:40:42;;;;;;;26.70;11.57;;;;;;;-0.07;100.00;93909.00;4977317;28;20092;-80
2021/12/02 05:43:08;;;;;;;24.30;11.60;;;;;;;0.11;100.00;93913.75;4977571;28;20102;-78
2021/12/02 05:45:33;;;;;;;22.55;11.65;;;;;;;0.22;100.00;93910.72;4977228;28;20019;-79
2021/12/02 05:47:58;;;;;;;27.08;14.65;;;;;;;-0.08;100.00;93917.41;4977686;28;20030;-79
2021/12/02 05:50:26;;;;;;;47.20;19.08;;;;;;;-0.03;100.00;93909.63;4977109;28;20022;-79
2021/12/02 05:52:52;;;;;;;41.35;19.17;;;;;;;-0.19;100.00;93902.53;4977476;28;20026;-78
2021/12/02 05:55:17;;;;;;;46.00;22.15;;;;;;;-0.28;100.00;93915.03;4977173;28;20037;-78
2021/12/02 05:57:43;;;;;;;41.15;20.60;;;;;;;-0.33;100.00;93905.63;4977098;28;20121;-80
2021/12/02 06:00:09;;;;;;;39.58;20.05;;;;;;;0.05;100.00;93918.13;4977112;28;20380;-81
2021/12/02 06:02:36;;;;;;;53.03;24.98;;;;;;;0.50;100.00;93927.69;4977035;28;20022;-80
2021/12/02 06:05:03;;;;;;;44.40;22.13;;;;;;;0.50;100.00;93916.25;4977172;28;20050;-84
2021/12/02 06:07:29;;;;;;;41.42;20.88;;;;;;;0.58;100.00;93922.09;4976879;28;20486;-82
2021/12/02 06:09:55;;;;;;;43.28;18.60;;;;;;;0.59;100.00;93915.56;4976840;28;20022;-82
2021/12/02 06:12:20;;;;;;;34.42;19.17;;;;;;;0.79;100.00;93929.34;4977384;28;20030;-83
2021/12/02 06:14:46;;;;;;;32.97;17.52;;;;;;;0.66;100.00;93918.72;4975978;28;20022;-84
2021/12/02 06:17:12;;;;;;;35.78;17.63;;;;;;;0.92;100.00;93929.25;5008520;28;20058;-84
2021/12/02 06:19:37;;;;;;;34.67;17.77;;;;;;;1.09;100.00;93927.13;4977269;28;20051;-82
2021/12/02 06:22:03;;;;;;;32.17;17.85;;;;;;;0.48;100.00;93919.34;4975777;28;20019;-83
2021/12/02 06:24:32;;;;;;;36.45;19.08;;;;;;;0.45;100.00;93920.22;4976644;28;20408;-83
2021/12/02 06:26:58;;;;;;;46.03;24.40;;;;;;;1.00;100.00;93930.47;4976689;28;20015;-84
2021/12/02 06:29:24;;;;;;;59.08;33.28;;;;;;;1.47;100.00;93923.41;4976784;28;20026;-81
2021/12/02 06:31:50;;;;;;;55.97;32.42;;;;;;;1.50;98.77;93938.56;4976191;28;20041;-84
2021/12/02 06:34:15;;;;;;;41.90;21.77;;;;;;;1.47;100.00;93928.75;4976132;28;20031;-85
2021/12/02 06:36:41;;;;;;;41.75;19.45;;;;;;;2.00;96.58;93935.13;4976928;28;20345;-85
2021/12/02 06:39:06;;;;;;;47.63;22.23;;;;;;;1.79;98.79;93916.06;5007852;28;20125;-86
2021/12/02 06:41:33;;;;;;;38.08;20.38;;;;;;;2.08;95.67;93946.28;4976215;28;20128;-86
2021/12/02 06:43:59;;;;;;;32.83;18.60;;;;;;;2.23;94.91;93952.53;4976089;28;20019;-86
2021/12/02 06:46:25;;;;;;;33.60;18.58;;;;;;;2.24;94.29;93954.03;4976151;28;20431;-85
2021/12/02 06:48:50;;;;;;;39.72;18.23;;;;;;;2.49;93.29;93952.25;4976241;28;20125;-85
2021/12/02 06:51:18;;;;;;;27.85;16.48;;;;;;;2.17;94.71;93941.69;4976094;28;20093;-85
2021/12/02 06:53:44;;;;;;;32.15;16.55;;;;;;;2.77;91.15;93938.81;4975950;28;20023;-83
2021/12/02 06:56:10;;;;;;;29.98;16.83;;;;;;;3.03;88.83;93928.50;4976441;28;20034;-83
2021/12/02 06:58:35;;;;;;;34.35;19.60;;;;;;;3.40;86.59;93931.06;4976663;28;20090;-84
2021/12/02 07:01:01;;;;;;;37.13;18.48;;;;;;;2.69;89.99;93938.41;4976567;28;20023;-84
2021/12/02 07:03:26;;;;;;;31.10;19.08;;;;;;;2.91;91.05;93937.47;4976657;28;20459;-82
2021/12/02 07:05:52;;;;;;;33.08;18.20;;;;;;;3.20;88.34;93943.06;4977171;28;20038;-83
2021/12/02 07:08:19;;;;;;;37.65;20.27;;;;;;;2.91;88.66;93948.19;4976195;28;20026;-84
2021/12/02 07:10:45;;;;;;;42.70;21.00;;;;;;;2.70;89.92;93935.28;4975687;28;20026;-83
2021/12/02 07:13:11;;;;;;;46.88;26.10;;;;;;;2.15;92.98;93925.28;4974409;28;20397;-84
2021/12/02 07:15:46;;;;;;;53.45;27.42;;;;;;;2.65;92.65;93932.44;4975595;28;20053;-84
2021/12/02 07:18:13;;;;;;;39.83;22.42;;;;;;;1.98;93.05;93938.22;4976600;28;20037;-84
2021/12/02 07:20:40;;;;;;;50.05;25.50;;;;;;;2.13;93.34;93932.31;5007410;28;20392;-83
2021/12/02 07:23:06;;;;;;;47.13;26.15;;;;;;;2.86;90.25;93936.13;4975560;28;20054;-83
2021/12/02 07:25:32;;;;;;;47.38;26.27;;;;;;;2.80;89.38;93930.63;4975095;28;20088;-83
2021/12/02 07:27:58;;;;;;;46.70;25.75;;;;;;;2.76;87.98;93930.03;4975292;28;20027;-83
2021/12/02 07:30:24;;;;;;;45.33;26.52;;;;;;;3.28;84.76;93932.00;4975357;28;20018;-81
2021/12/02 07:32:56;;;;;;;57.58;29.85;;;;;;;3.92;82.09;93922.16;4974686;28;20054;-81
2021/12/02 07:35:24;;;;;;;56.58;30.33;;;;;;;3.87;81.96;93929.66;4975172;28;20027;-82
2021/12/02 07:37:54;;;;;;;68.45;36.08;;;;;;;4.62;77.70;93926.41;4975397;28;20093;-81
2021/12/02 07:40:21;;;;;;;71.28;34.88;;;;;;;5.31;74.80;93939.81;4975737;28;20026;-80
2021/12/02 07:42:52;;;;;;;56.22;29.45;;;;;;;5.82;71.53;93935.91;5006625;28;20376;-80
2021/12/02 07:45:18;;;;;;;48.25;27.13;;;;;;;5.67;70.63;93933.25;4974968;28;20027;-81
2021/12/02 07:47:44;;;;;;;49.38;26.80;;;;;;;5.61;70.55;93929.72;4975119;28;20085;-81
2021/12/02 07:50:13;;;;;;;44.75;26.85;;;;;;;5.80;72.10;93930.22;4974881;28;20435;-81
2021/12/02 07:52:45;;;;;;;45.30;27.33;;;;;;;6.43;67.85;93935.22;4975033;28;20050;-81
2021/12/02 07:55:13;;;;;;;58.50;27.25;;;;;;;7.14;65.72;93950.38;4975472;28;20022;-80
2021/12/02 07:57:41;;;;;;;41.75;25.55;;;;;;;7.39;64.38;93956.97;4975027;28;20034;-80
2021/12/02 08:00:07;;;;;;;47.08;25.60;;;;;;;8.03;62.40;93950.75;4974651;28;20054;-80
2021/12/02 08:02:34;;;;;;;52.13;24.60;;;;;;;8.59;59.43;93959.16;4975056;28;20490;-81
2021/12/02 08:05:00;;;;;;;44.97;24.75;;;;;;;8.99;57.76;93955.81;4974737;28;20031;-80
2021/12/02 08:07:26;;;;;;;40.17;23.63;;;;;;;8.87;57.93;93958.47;4974651;28;20030;-80
2021/12/02 08:09:51;;;;;;;43.83;23.23;;;;;;;9.41;55.99;93951.44;4975260;28;20030;-80
2021/12/02 08:12:17;;;;;;;37.97;19.23;;;;;;;8.90;57.30;93954.06;4974501;28;20119;-80
2021/12/02 08:14:43;;;;;;;32.58;16.08;;;;;;;9.52;54.24;93958.81;4973969;28;20030;-79
2021/12/02 08:17:08;;;;;;;31.23;17.63;;;;;;;10.29;51.95;93958.44;4974456;28;20023;-79
2021/12/02 08:19:35;;;;;;;24.17;14.23;;;;;;;10.62;50.31;93949.47;4974528;28;20027;-80
2021/12/02 08:22:00;;;;;;;28.50;14.88;;;;;;;11.01;49.47;93949.78;4974549;28;20460;-80
2021/12/02 08:24:26;;;;;;;19.83;11.75;;;;;;;10.71;49.36;93950.44;5005946;28;20023;-81
2021/12/02 08:26:53;;;;;;;27.48;12.10;;;;;;;10.41;49.31;93942.91;4974637;28;20023;-80
2021/12/02 08:29:20;;;;;;;21.50;11.88;;;;;;;10.62;49.61;93957.63;4973376;28;20026;-81
2021/12/02 08:31:45;;;;;;;19.63;10.90;;;;;;;11.19;46.91;93965.44;4974585;28;20030;-80
2021/12/02 08:34:11;;;;;;;17.58;10.55;;;;;;;11.61;46.02;93952.56;4974846;28;20027;-80
2021/12/02 08:36:43;;;;;;;19.60;10.60;;;;;;;12.19;44.69;93942.69;4974468;28;20033;-80
2021/12/02 08:39:12;;;;;;;;;;;;;;;10.95;46.03;93953.25;4975015;28;20430;-80
2021/12/02 08:41:43;;;;;;;18.17;9.77;;;;;;;11.18;45.45;93934.13;4974198;28;20370;-80
2021/12/02 08:44:09;;;;;;;15.45;8.48;;;;;;;11.75;44.32;93944.53;4973462;28;20023;-79
2021/12/02 08:46:34;;;;;;;16.35;7.75;;;;;;;12.45;42.63;93944.84;4974067;28;20033;-80
2021/12/02 08:49:00;;;;;;;17.15;7.75;;;;;;;11.13;44.22;93948.47;4974039;28;20022;-79
2021/12/02 08:51:25;;;;;;;11.38;7.88;;;;;;;12.31;42.21;93933.16;4974265;28;20026;-79
2021/12/02 08:53:51;;;;;;;14.50;8.18;;;;;;;12.64;42.25;93930.56;5005408;28;20137;-80
2021/12/02 08:56:16;;;;;;;16.42;8.50;;;;;;;12.88;41.38;93931.72;4973863;28;20074;-79
2021/12/02 08:58:42;;;;;;;14.77;8.07;;;;;;;13.45;39.91;93913.31;4974119;28;20057;-79
2021/12/02 09:01:07;;;;;;;15.00;8.32;;;;;;;13.16;39.86;93923.16;4974245;28;20023;-78
2021/12/02 09:03:35;;;;;;;13.68;7.65;;;;;;;12.89;39.76;93917.59;4974183;28;20019;-79
2021/12/02 09:06:01;;;;;;;14.75;8.00;;;;;;;11.62;42.56;93916.00;4974035;28;20039;-79
2021/12/02 09:08:26;;;;;;;15.32;7.18;;;;;;;13.52;39.75;93909.25;4974127;28;20487;-79
2021/12/02 09:10:52;;;;;;;14.10;7.10;;;;;;;13.26;40.49;93921.50;5005364;28;20069;-78
2021/12/02 09:13:17;;;;;;;10.93;6.82;;;;;;;13.21;40.03;93910.72;4973861;28;20029;-79
2021/12/02 09:15:43;;;;;;;11.82;7.03;;;;;;;14.03;37.55;93895.50;4974281;28;20034;-79
2021/12/02 09:18:09;;;;;;;16.20;8.20;;;;;;;13.47;38.97;93893.72;4974105;28;20329;-79
2021/12/02 09:20:35;;;;;;;13.43;7.40;;;;;;;14.79;36.94;93885.34;4973734;28;20035;-79
2021/12/02 09:23:01;;;;;;;14.23;8.30;;;;;;;14.66;36.81;93900.50;5005601;28;20411;-79
2021/12/02 09:25:27;;;;;;;17.58;8.25;;;;;;;14.96;36.66;93891.19;4973615;28;20154;-78
2021/12/02 09:27:53;;;;;;;17.42;7.93;;;;;;;15.32;35.07;93893.34;4973778;28;20035;-78
2021/12/02 09:30:19;;;;;;;13.07;7.07;;;;;;;12.94;39.25;93875.94;4973799;28;20093;-78
2021/12/02 09:32:44;;;;;;;19.65;9.82;;;;;;;14.98;36.05;93877.75;4973551;28;20047;-78
2021/12/02 09:35:11;;;;;;;19.30;7.22;;;;;;;13.52;37.88;93874.56;4973883;28;20038;-78
2021/12/02 09:37:38;;;;;;;11.27;6.50;;;;;;;13.74;36.55;93886.34;4973454;28;20023;-78
2021/12/02 09:40:05;;;;;;;14.55;6.50;;;;;;;12.50;39.22;93888.88;4973981;28;20033;-78
2021/12/02 09:42:31;;;;;;;12.85;6.15;;;;;;;14.70;36.16;93881.81;4973806;28;20027;-78
2021/12/02 09:45:00;;;;;;;13.07;6.20;;;;;;;13.42;38.60;93883.66;4973613;28;20041;-78
2021/12/02 09:47:32;;;;;;;10.98;6.75;;;;;;;14.06;38.18;93882.81;4974049;28;20030;-78
2021/12/02 09:50:04;;;;;;;14.63;6.82;;;;;;;15.16;35.58;93869.88;4974061;28;20038;-77
2021/12/02 09:52:34;;;;;;;16.15;8.07;;;;;;;14.46;35.68;93865.66;4973944;28;20480;-80
2021/12/02 09:55:06;;;;;;;15.75;8.43;;;;;;;14.36;35.34;93862.63;5005296;28;20027;-83
2021/12/02 09:57:39;;;;;;;14.32;7.10;;;;;;;15.47;34.48;93859.22;5008468;28;20038;-83
2021/12/02 10:00:06;;;;;;;11.32;5.85;;;;;;;14.16;35.62;93858.56;4977206;28;20401;-84
2021/12/02 10:02:40;;;;;;;15.07;6.53;;;;;;;16.12;33.23;93864.06;4975968;28;20022;-85
2021/12/02 10:05:08;;;;;;;23.08;7.75;;;;;;;16.31;32.29;93864.53;4977265;28;20062;-85
2021/12/02 10:07:46;;;;;;;12.95;6.40;;;;;;;15.51;33.46;93854.16;4977000;28;20093;-85
2021/12/02 10:10:33;;;;;;;12.65;6.28;;;;;;;15.88;32.72;93852.25;4978106;28;20026;-84
2021/12/02 10:13:12;;;;;;;11.13;5.50;;;;;;;15.82;32.92;93832.53;4977454;28;20019;-87
2021/12/02 10:15:39;;;;;;;14.07;6.53;;;;;;;15.20;33.53;93840.22;4977429;28;20346;-85
2021/12/02 10:18:11;;;;;;;18.90;6.75;;;;;;;15.59;33.29;93822.13;4976963;28;20030;-84
2021/12/02 10:20:42;;;;;;;21.75;8.13;;;;;;;14.73;34.90;93832.88;4977427;28;20054;-83
2021/12/02 10:23:23;;;;;;;15.15;8.13;;;;;;;13.82;36.51;93826.47;4977366;28;20034;-84
2021/12/02 10:25:49;;;;;;;16.88;7.63;;;;;;;14.38;34.99;93832.81;4977329;28;20129;-85
2021/12/02 10:28:18;;;;;;;15.85;7.78;;;;;;;15.19;34.71;93827.84;4977539;28;20463;-85
2021/12/02 10:30:50;;;;;;;15.82;8.40;;;;;;;12.46;38.43;93812.25;4977279;28;20030;-82
2021/12/02 10:33:32;;;;;;;15.20;8.05;;;;;;;13.18;37.25;93801.53;4976919;28;20047;-83
2021/12/02 10:35:57;;;;;;;11.75;8.13;;;;;;;12.75;38.56;93801.69;5008416;28;20463;-83
2021/12/02 10:38:44;;;;;;;16.92;7.47;;;;;;;12.12;39.76;93801.81;4976617;28;20022;-83
2021/12/02 10:41:17;;;;;;;13.15;6.60;;;;;;;10.53;42.26;93792.41;4977308;28;20034;-84
2021/12/02 10:44:06;;;;;;;19.98;7.55;;;;;;;11.31;41.42;93801.16;4979220;28;20027;-86
2021/12/02 10:46:34;;;;;;;14.77;6.63;;;;;;;11.37;41.52;93792.22;4977715;28;20118;-85
2021/12/02 10:48:59;;;;;;;14.82;7.55;;;;;;;10.37;43.99;93777.00;4977674;28;20058;-88
2021/12/02 10:51:46;;;;;;;18.15;8.10;;;;;;;10.53;43.73;93776.13;4980951;28;20054;-86
2021/12/02 10:54:20;;;;;;;13.43;8.05;;;;;;;9.63;45.66;93767.19;5019541;28;20126;-88
2021/12/02 10:56:48;;;;;;;14.23;8.43;;;;;;;9.33;47.24;93760.91;4980161;28;20382;-86
2021/12/02 10:59:29;;;;;;;16.38;8.07;;;;;;;8.88;48.48;93762.44;4981101;28;20027;-84
2021/12/02 11:02:08;;;;;;;14.07;7.60;;;;;;;8.69;48.92;93758.75;4979970;28;20035;-86
2021/12/02 11:04:40;;;;;;;15.18;7.82;;;;;;;8.28;50.67;93746.41;5015188;28;20031;-83
2021/12/02 11:07:10;;;;;;;14.15;8.07;;;;;;;8.31;50.73;93734.63;4982089;28;20452;-86
2021/12/02 11:09:37;;;;;;;15.95;7.90;;;;;;;8.35;50.32;93742.50;4997886;28;20015;-86
2021/12/02 11:12:25;;;;;;;12.55;7.45;;;;;;;8.48;50.59;93740.06;4997495;28;20097;-86
2021/12/02 11:14:58;;;;;;;16.13;7.90;;;;;;;7.83;52.01;93732.81;4988127;28;20022;-86
2021/12/02 11:17:29;;;;;;;13.60;7.75;;;;;;;7.25;53.74;93739.97;4976785;28;20097;-85
2021/12/02 11:19:56;;;;;;;;;;;;;;;7.57;53.28;93717.50;4977088;28;20101;-85
2021/12/02 11:22:22;;;;;;;19.70;9.82;;;;;;;7.48;55.02;93718.44;4976863;28;20351;-86
2021/12/02 11:24:49;;;;;;;14.95;7.20;;;;;;;7.24;55.12;93721.53;4977494;28;20046;-83
2021/12/02 11:27:26;;;;;;;15.63;8.13;;;;;;;7.18;55.36;93729.59;4977244;28;20468;-87
2021/12/02 11:30:14;;;;;;;15.30;8.32;;;;;;;7.15;55.94;93722.47;4979067;28;20066;-86
2021/12/02 11:32:39;;;;;;;16.48;8.35;;;;;;;7.30;56.10;93724.28;4977119;28;20050;-87
2021/12/02 11:35:07;;;;;;;20.02;8.70;;;;;;;6.87;56.66;93717.66;5008131;28;20035;-85
2021/12/02 11:37:35;;;;;;;20.50;8.90;;;;;;;6.94;56.93;93700.28;4976899;28;20038;-87